Time;durP1;ratioP1;P1;durP2;ratioP2;P2;SDS_P1;SDS_P2;PMS_P1;PMS_P2;Temp;Humidity;BMP_temperature;BMP_pressure;BME280_temperature;BME280_humidity;BME280_pressure;Samples;Min_cycle;Max_cycle;Signal;HPM_P1;HPM_P2
2021/03/18 00:01:13;;;;;;;35.63;18.33;;;2.30;90.40;;;;;;5012791;28;20026;-68
2021/03/18 00:03:40;;;;;;;35.78;19.08;;;2.30;90.50;;;;;;5000250;28;20026;-68
2021/03/18 00:06:07;;;;;;;35.67;18.27;;;2.30;90.30;;;;;;4992329;28;20026;-68
2021/03/18 00:08:34;;;;;;;41.78;19.38;;;2.30;90.30;;;;;;4997660;28;20044;-68
2021/03/18 00:11:01;;;;;;;40.58;20.95;;;2.30;90.40;;;;;;4994883;28;20064;-68
2021/03/18 00:13:29;;;;;;;33.50;17.77;;;2.20;90.30;;;;;;5012129;28;20030;-68
2021/03/18 00:15:56;;;;;;;38.38;19.23;;;2.30;90.70;;;;;;5012637;28;20033;-68
2021/03/18 00:18:25;;;;;;;37.40;18.17;;;2.30;90.70;;;;;;5011761;28;20030;-68
2021/03/18 00:20:50;;;;;;;39.13;18.80;;;2.30;90.60;;;;;;4994531;28;20022;-68
2021/03/18 00:23:16;;;;;;;44.13;21.83;;;2.40;90.90;;;;;;5012260;28;20029;-68
2021/03/18 00:25:41;;;;;;;39.65;19.85;;;2.50;91.00;;;;;;5012012;28;20022;-68
2021/03/18 00:28:07;;;;;;;35.17;18.35;;;2.50;90.70;;;;;;4994731;28;20022;-68
2021/03/18 00:30:33;;;;;;;35.95;18.77;;;2.50;90.50;;;;;;5012273;28;20057;-68
2021/03/18 00:32:58;;;;;;;34.45;18.67;;;2.50;90.50;;;;;;5012369;28;20391;-68
2021/03/18 00:35:24;;;;;;;34.03;18.58;;;2.50;90.40;;;;;;5012057;28;20238;-68
2021/03/18 00:37:52;;;;;;;34.40;17.98;;;2.50;90.30;;;;;;4992626;28;20030;-68
2021/03/18 00:40:22;;;;;;;34.42;17.42;;;2.40;90.20;;;;;;4978531;28;20038;-68
2021/03/18 00:42:57;;;;;;;31.33;18.17;;;2.40;90.20;;;;;;4997258;28;20488;-68
2021/03/18 00:45:25;;;;;;;29.52;17.25;;;2.40;90.00;;;;;;4996995;28;20113;-69
2021/03/18 00:47:50;;;;;;;34.88;18.67;;;2.40;90.10;;;;;;4979271;28;20057;-68
2021/03/18 00:50:30;;;;;;;33.67;17.45;;;2.40;90.20;;;;;;5013506;28;20026;-68
2021/03/18 00:52:55;;;;;;;33.10;17.75;;;2.40;90.00;;;;;;5017388;28;20026;-68
2021/03/18 00:55:21;;;;;;;37.40;18.35;;;2.40;90.20;;;;;;5017587;28;20053;-68
2021/03/18 00:57:50;;;;;;;34.40;19.10;;;2.40;90.30;;;;;;5016595;28;20034;-68
2021/03/18 01:00:43;;;;;;;32.63;17.02;;;2.40;90.30;;;;;;5016704;28;20261;-68
2021/03/18 01:03:10;;;;;;;28.83;16.85;;;2.40;90.10;;;;;;5005594;28;20026;-68
2021/03/18 01:05:46;;;;;;;30.45;17.90;;;2.40;90.00;;;;;;4996215;28;20536;-68
2021/03/18 01:08:14;;;;;;;24.52;15.13;;;2.40;89.80;;;;;;4994909;28;20034;-68
2021/03/18 01:10:53;;;;;;;33.30;17.10;;;2.40;89.60;;;;;;4996331;28;20066;-69
2021/03/18 01:13:19;;;;;;;28.05;15.82;;;2.40;89.40;;;;;;4996974;28;20026;-69
2021/03/18 01:15:50;;;;;;;26.80;16.42;;;2.40;89.60;;;;;;5004427;28;20558;-69
2021/03/18 01:18:18;;;;;;;28.65;15.90;;;2.40;89.70;;;;;;5017013;22;20704;-66
2021/03/18 01:20:44;;;;;;;26.95;16.13;;;2.40;89.80;;;;;;5013664;28;20048;-67
2021/03/18 01:23:11;;;;;;;30.85;15.82;;;2.50;89.90;;;;;;5014925;28;20037;-67
2021/03/18 01:25:37;;;;;;;31.15;16.90;;;2.60;89.90;;;;;;5015048;28;20079;-67
2021/03/18 01:28:03;;;;;;;27.20;15.38;;;2.50;89.40;;;;;;5017837;28;20034;-67
2021/03/18 01:30:30;;;;;;;28.23;15.95;;;2.60;89.60;;;;;;5034538;28;20026;-67
2021/03/18 01:32:56;;;;;;;26.17;15.73;;;2.50;89.40;;;;;;5034726;28;20071;-68
2021/03/18 01:35:23;;;;;;;25.67;15.75;;;2.60;89.60;;;;;;5034743;28;20030;-68
2021/03/18 01:37:50;;;;;;;24.85;15.23;;;2.50;89.00;;;;;;5034283;28;20053;-68
2021/03/18 01:40:24;;;;;;;26.90;15.82;;;2.40;89.00;;;;;;5034655;28;20021;-69
2021/03/18 01:42:50;;;;;;;26.92;15.07;;;2.50;89.20;;;;;;5034586;28;20541;-69
2021/03/18 01:45:17;;;;;;;26.95;15.23;;;2.50;89.70;;;;;;5034693;28;20025;-68
2021/03/18 01:47:45;;;;;;;22.25;14.32;;;2.50;89.40;;;;;;5034281;28;20071;-69
2021/03/18 01:50:13;;;;;;;25.17;15.15;;;2.50;89.20;;;;;;5019051;28;20029;-69
2021/03/18 01:52:39;;;;;;;27.75;15.32;;;2.50;89.10;;;;;;5014937;28;20030;-68
2021/03/18 01:55:08;;;;;;;24.33;14.40;;;2.50;89.10;;;;;;5014676;28;20022;-68
2021/03/18 01:57:34;;;;;;;24.65;15.57;;;2.50;89.00;;;;;;5012826;28;20033;-69
2021/03/18 02:00:01;;;;;;;23.27;15.30;;;2.50;88.60;;;;;;5014575;28;20030;-69
2021/03/18 02:02:27;;;;;;;24.20;15.10;;;2.40;88.70;;;;;;5015424;28;20587;-69
2021/03/18 02:04:53;;;;;;;25.52;15.70;;;2.50;89.00;;;;;;5033211;28;20032;-69
2021/03/18 02:07:18;;;;;;;27.63;16.30;;;2.50;89.20;;;;;;5033943;28;20033;-69
2021/03/18 02:09:44;;;;;;;22.58;14.98;;;2.50;88.80;;;;;;5047222;28;20475;-69
2021/03/18 02:12:10;;;;;;;22.23;14.40;;;2.50;89.00;;;;;;5052749;28;20043;-69
2021/03/18 02:14:37;;;;;;;23.33;14.68;;;2.50;89.10;;;;;;5054025;28;20044;-68
2021/03/18 02:17:08;;;;;;;21.80;14.13;;;2.60;88.90;;;;;;5053668;28;20409;-69
2021/03/18 02:19:51;;;;;;;23.40;14.02;;;2.60;88.60;;;;;;5053625;28;20090;-69
2021/03/18 02:22:46;;;;;;;24.00;14.55;;;2.50;88.40;;;;;;5053764;28;20547;-69
2021/03/18 02:25:23;;;;;;;19.27;12.98;;;2.50;88.90;;;;;;5022369;28;20128;-68
2021/03/18 02:28:00;;;;;;;19.83;13.70;;;2.50;88.60;;;;;;5012509;28;20479;-68
2021/03/18 02:30:54;;;;;;;24.08;15.32;;;2.40;88.40;;;;;;5012886;28;20053;-69
2021/03/18 02:33:47;;;;;;;20.50;14.35;;;2.40;88.30;;;;;;5012760;28;20080;-69
2021/03/18 02:36:19;;;;;;;20.80;14.02;;;2.50;88.40;;;;;;5019093;28;20364;-69
2021/03/18 02:38:50;;;;;;;21.67;14.00;;;2.50;88.50;;;;;;5032275;28;20033;-69
2021/03/18 02:41:20;;;;;;;23.63;15.07;;;2.50;87.60;;;;;;5032516;28;20029;-68
2021/03/18 02:43:52;;;;;;;23.65;14.52;;;2.40;87.80;;;;;;5034574;28;20018;-68
2021/03/18 02:46:20;;;;;;;23.70;15.20;;;2.30;87.80;;;;;;5038271;28;20476;-68
2021/03/18 02:48:47;;;;;;;24.88;15.82;;;2.30;88.00;;;;;;5040272;28;20067;-68
2021/03/18 02:51:16;;;;;;;21.08;14.55;;;2.30;87.50;;;;;;5039898;28;20021;-69
2021/03/18 02:53:44;;;;;;;20.13;14.30;;;2.30;88.10;;;;;;5033446;28;20033;-68
2021/03/18 02:56:12;;;;;;;20.85;14.65;;;2.30;87.70;;;;;;5033229;28;20028;-69
2021/03/18 02:58:44;;;;;;;23.50;15.10;;;2.30;87.20;;;;;;5033340;28;20028;-69
2021/03/18 03:01:10;;;;;;;22.80;14.13;;;2.30;87.60;;;;;;5033134;28;20104;-68
2021/03/18 03:03:38;;;;;;;23.83;14.82;;;2.30;87.70;;;;;;5021192;28;20026;-68
2021/03/18 03:06:05;;;;;;;21.98;13.95;;;2.30;86.60;;;;;;5012973;28;20021;-68
2021/03/18 03:08:32;;;;;;;18.92;13.77;;;2.30;86.60;;;;;;5013147;28;20044;-68
2021/03/18 03:11:00;;;;;;;20.60;14.30;;;2.20;86.90;;;;;;5013285;28;20054;-68
2021/03/18 03:13:30;;;;;;;22.58;15.85;;;2.20;86.80;;;;;;5013495;28;20033;-69
2021/03/18 03:15:56;;;;;;;26.48;15.45;;;2.30;86.90;;;;;;5013378;28;20034;-68
2021/03/18 03:18:22;;;;;;;23.67;16.20;;;2.20;86.70;;;;;;5012778;28;20084;-69
2021/03/18 03:20:52;;;;;;;21.13;14.43;;;2.10;87.00;;;;;;5012998;28;20022;-68
2021/03/18 03:23:19;;;;;;;25.13;14.55;;;2.20;87.30;;;;;;5020252;28;20104;-67
2021/03/18 03:25:45;;;;;;;22.08;15.23;;;2.10;87.40;;;;;;5031425;28;20052;-67
2021/03/18 03:28:12;;;;;;;24.30;14.82;;;2.20;87.30;;;;;;5032421;28;20029;-66
2021/03/18 03:30:38;;;;;;;24.70;15.40;;;2.20;87.30;;;;;;5031347;28;20029;-68
2021/03/18 03:33:08;;;;;;;22.10;14.45;;;2.30;87.50;;;;;;5032698;28;20049;-67
2021/03/18 03:35:35;;;;;;;24.77;14.45;;;2.20;85.70;;;;;;5031492;28;20025;-67
2021/03/18 03:38:00;;;;;;;21.45;15.18;;;2.10;86.10;;;;;;5013228;28;20031;-67
2021/03/18 03:40:27;;;;;;;22.88;16.13;;;2.10;86.10;;;;;;5012591;28;20053;-67
2021/03/18 03:42:53;;;;;;;22.70;15.18;;;2.20;86.40;;;;;;5011519;28;20026;-68
2021/03/18 03:45:18;;;;;;;22.80;15.30;;;2.20;86.40;;;;;;5012747;28;20022;-68
2021/03/18 03:47:48;;;;;;;24.33;15.32;;;2.10;86.40;;;;;;4994994;28;20171;-67
2021/03/18 03:50:17;;;;;;;20.15;14.60;;;2.10;86.20;;;;;;5012705;28;20053;-68
2021/03/18 03:53:06;;;;;;;21.13;15.27;;;2.00;86.40;;;;;;5012603;28;20029;-68
2021/03/18 03:55:53;;;;;;;23.92;15.07;;;2.00;86.50;;;;;;5012628;28;20427;-68
2021/03/18 03:58:34;;;;;;;22.52;14.50;;;2.00;86.90;;;;;;5010853;28;20112;-68
2021/03/18 04:01:03;;;;;;;23.60;14.93;;;2.00;86.50;;;;;;5012423;28;20022;-68
2021/03/18 04:03:31;;;;;;;25.38;16.23;;;1.90;86.40;;;;;;5022964;28;20026;-68
2021/03/18 04:05:58;;;;;;;23.40;15.32;;;2.00;87.10;;;;;;5032067;28;20021;-68
2021/03/18 04:08:27;;;;;;;26.13;16.42;;;1.90;86.40;;;;;;5031951;28;20025;-68
2021/03/18 04:10:56;;;;;;;25.70;17.42;;;2.00;86.80;;;;;;5030561;28;20487;-68
2021/03/18 04:13:22;;;;;;;26.10;17.45;;;2.00;86.70;;;;;;5013872;28;20030;-68
2021/03/18 04:15:48;;;;;;;35.22;23.85;;;1.90;86.50;;;;;;5032095;28;20033;-68
2021/03/18 04:18:16;;;;;;;74.78;50.05;;;1.90;87.10;;;;;;5030331;28;20043;-67
2021/03/18 04:20:44;;;;;;;29.58;19.75;;;2.00;87.10;;;;;;5030630;28;20021;-68
2021/03/18 04:23:10;;;;;;;26.77;17.58;;;2.00;87.50;;;;;;5031786;28;20079;-68
2021/03/18 04:25:37;;;;;;;26.27;17.50;;;2.00;87.00;;;;;;5031810;28;20017;-68
2021/03/18 04:28:09;;;;;;;27.95;18.98;;;2.00;86.50;;;;;;5031831;28;20033;-68
2021/03/18 04:30:35;;;;;;;;;;;1.90;86.80;;;;;;5031608;28;20029;-68
2021/03/18 04:33:01;;;;;;;28.45;18.35;;;2.00;86.80;;;;;;5031971;28;20358;-68
2021/03/18 04:35:30;;;;;;;27.13;18.15;;;1.90;86.70;;;;;;5030830;28;20028;-68
2021/03/18 04:37:59;;;;;;;27.52;18.38;;;2.00;86.80;;;;;;5030154;28;20032;-68
2021/03/18 04:40:25;;;;;;;27.08;19.15;;;2.10;87.00;;;;;;5031762;28;20088;-68
2021/03/18 04:42:51;;;;;;;25.75;17.95;;;2.00;87.10;;;;;;5032145;28;20105;-68
2021/03/18 04:45:21;;;;;;;28.25;19.02;;;2.00;86.50;;;;;;5031916;28;20021;-68
2021/03/18 04:47:49;;;;;;;28.33;19.33;;;2.10;87.10;;;;;;5030186;28;20467;-68
2021/03/18 04:50:21;;;;;;;29.10;18.63;;;2.00;86.90;;;;;;5015945;28;20032;-68
2021/03/18 04:52:49;;;;;;;26.60;17.05;;;2.10;86.50;;;;;;5012112;28;20026;-68
2021/03/18 04:55:17;;;;;;;28.20;18.25;;;2.10;86.50;;;;;;5011961;28;20046;-68
2021/03/18 04:57:47;;;;;;;24.75;17.30;;;2.10;86.80;;;;;;5012952;28;20395;-68
2021/03/18 05:00:16;;;;;;;24.25;16.00;;;2.10;86.40;;;;;;4996383;28;20399;-69
2021/03/18 05:02:43;;;;;;;21.85;15.27;;;2.10;86.40;;;;;;5016674;28;20021;-68
2021/03/18 05:05:21;;;;;;;24.00;16.67;;;2.20;86.00;;;;;;5029923;28;20132;-68
2021/03/18 05:07:49;;;;;;;22.33;15.55;;;2.10;86.50;;;;;;5031348;28;20018;-68
2021/03/18 05:10:25;;;;;;;27.98;18.30;;;2.20;86.50;;;;;;5031508;28;20029;-68
2021/03/18 05:12:52;;;;;;;30.05;17.73;;;2.10;86.00;;;;;;5031670;28;20036;-68
2021/03/18 05:15:21;;;;;;;28.60;18.63;;;2.00;85.70;;;;;;5033070;28;20412;-68
2021/03/18 05:17:48;;;;;;;27.58;17.77;;;2.00;85.70;;;;;;5032621;28;20056;-69
2021/03/18 05:20:15;;;;;;;26.83;17.30;;;2.10;85.20;;;;;;5032815;28;20411;-69
2021/03/18 05:22:44;;;;;;;29.75;17.23;;;2.00;85.20;;;;;;5032963;28;20399;-68
2021/03/18 05:25:12;;;;;;;28.77;16.77;;;2.00;85.20;;;;;;5033853;28;20398;-68
2021/03/18 05:27:38;;;;;;;28.02;16.27;;;2.10;84.80;;;;;;5035240;28;20020;-68
2021/03/18 05:30:07;;;;;;;24.35;15.60;;;2.00;84.40;;;;;;5034681;28;20040;-68
2021/03/18 05:32:33;;;;;;;26.30;15.75;;;2.00;84.20;;;;;;5034978;28;20021;-68
2021/03/18 05:34:58;;;;;;;27.88;16.92;;;2.00;84.50;;;;;;5035121;28;20056;-68
2021/03/18 05:37:24;;;;;;;24.60;16.13;;;2.00;84.90;;;;;;5016759;28;20025;-67
2021/03/18 05:39:50;;;;;;;27.00;15.85;;;2.00;84.80;;;;;;5013747;28;20032;-68
2021/03/18 05:42:16;;;;;;;24.58;14.88;;;2.00;84.90;;;;;;5013519;28;20026;-67
2021/03/18 05:44:45;;;;;;;20.95;14.40;;;2.10;84.50;;;;;;5027352;28;20024;-68
2021/03/18 05:47:12;;;;;;;24.15;14.77;;;2.10;83.60;;;;;;5022528;28;20552;-68
2021/03/18 05:49:38;;;;;;;21.17;14.27;;;2.10;83.40;;;;;;5022779;28;20029;-68
2021/03/18 05:52:08;;;;;;;21.88;15.27;;;2.10;83.90;;;;;;5024022;28;20367;-68
2021/03/18 05:54:34;;;;;;;24.10;14.18;;;2.10;83.60;;;;;;5023074;28;20377;-69
2021/03/18 05:57:00;;;;;;;27.13;15.52;;;2.10;83.10;;;;;;5023363;28;20052;-68
2021/03/18 05:59:28;;;;;;;23.23;15.77;;;2.10;84.60;;;;;;5024438;28;20444;-68
2021/03/18 06:01:57;;;;;;;21.63;14.55;;;2.10;84.00;;;;;;5017215;28;20112;-67
2021/03/18 06:04:23;;;;;;;23.60;15.65;;;2.20;83.90;;;;;;5032390;28;20099;-68
2021/03/18 06:06:49;;;;;;;24.65;14.60;;;2.20;82.90;;;;;;5034171;28;20515;-67
2021/03/18 06:09:15;;;;;;;23.75;15.25;;;2.20;83.00;;;;;;5034062;28;20497;-70
2021/03/18 06:11:41;;;;;;;24.08;15.25;;;2.30;83.10;;;;;;5032536;28;20032;-69
2021/03/18 06:14:07;;;;;;;22.17;15.00;;;2.20;82.30;;;;;;5032779;28;20017;-69
2021/03/18 06:16:33;;;;;;;19.63;12.48;;;2.30;81.70;;;;;;5033359;28;20540;-68
2021/03/18 06:19:01;;;;;;;20.55;12.63;;;2.40;81.60;;;;;;5033961;28;20037;-69
2021/03/18 06:21:48;;;;;;;21.67;14.27;;;2.40;80.90;;;;;;5033825;28;20434;-68
2021/03/18 06:24:15;;;;;;;21.40;13.55;;;2.30;81.10;;;;;;5033585;28;20379;-68
2021/03/18 06:26:41;;;;;;;22.55;13.73;;;2.40;80.90;;;;;;5033517;28;20026;-67
2021/03/18 06:29:34;;;;;;;19.95;13.52;;;2.40;81.20;;;;;;5033541;28;20030;-67
2021/03/18 06:32:20;;;;;;;21.15;12.75;;;2.50;80.50;;;;;;5033779;28;20044;-69
2021/03/18 06:34:51;;;;;;;22.13;13.52;;;2.90;80.90;;;;;;5033529;28;20479;-68
2021/03/18 06:37:40;;;;;;;26.60;14.25;;;3.00;78.90;;;;;;5032536;28;20100;-68
2021/03/18 06:40:19;;;;;;;21.70;13.93;;;3.10;78.90;;;;;;5033474;28;20100;-68
2021/03/18 06:43:01;;;;;;;21.73;13.70;;;3.00;78.60;;;;;;5033763;28;20251;-69
2021/03/18 06:45:32;;;;;;;21.90;13.73;;;2.80;79.20;;;;;;5032388;28;20112;-70
2021/03/18 06:48:20;;;;;;;20.48;12.80;;;2.70;78.90;;;;;;5031621;28;20021;-68
2021/03/18 06:50:48;;;;;;;25.05;14.13;;;2.70;79.70;;;;;;5012687;28;20064;-68
2021/03/18 06:53:17;;;;;;;21.38;13.88;;;2.80;78.80;;;;;;5013310;28;20062;-67
2021/03/18 06:55:43;;;;;;;22.83;14.30;;;3.00;79.10;;;;;;5013521;28;20026;-69
2021/03/18 06:58:13;;;;;;;21.42;12.30;;;3.10;79.10;;;;;;5011949;28;20037;-69
2021/03/18 07:00:40;;;;;;;19.48;12.68;;;3.30;77.40;;;;;;5013366;28;20113;-70
2021/03/18 07:03:09;;;;;;;21.42;13.98;;;3.50;76.90;;;;;;5020563;28;20063;-70
2021/03/18 07:05:42;;;;;;;20.08;12.93;;;3.40;77.20;;;;;;5033068;28;20021;-70
2021/03/18 07:08:28;;;;;;;20.27;12.18;;;3.20;77.40;;;;;;5031259;28;20028;-71
2021/03/18 07:10:55;;;;;;;23.75;13.75;;;3.30;77.60;;;;;;5024466;28;20038;-71
2021/03/18 07:13:28;;;;;;;20.67;13.00;;;3.50;77.50;;;;;;5031830;28;20033;-70
2021/03/18 07:15:56;;;;;;;20.38;13.27;;;3.70;77.30;;;;;;5032588;28;20506;-70
2021/03/18 07:21:16;;;;;;;20.02;12.57;;;4.00;75.70;;;;;;5011307;28;20096;-69
2021/03/18 07:23:44;;;;;;;20.83;12.65;;;4.10;75.00;;;;;;5011319;28;20110;-69
2021/03/18 07:26:17;;;;;;;22.42;13.57;;;4.00;74.60;;;;;;5005724;28;20030;-69
2021/03/18 07:28:48;;;;;;;20.38;13.55;;;3.80;75.00;;;;;;5013451;28;20018;-70
2021/03/18 07:31:15;;;;;;;19.10;13.23;;;3.70;75.00;;;;;;5013214;28;20076;-69
2021/03/18 07:33:43;;;;;;;19.75;12.85;;;3.80;75.20;;;;;;5012356;28;20034;-69
2021/03/18 07:36:09;;;;;;;19.45;12.77;;;3.90;75.50;;;;;;5007232;28;20018;-70
2021/03/18 07:38:36;;;;;;;18.92;12.68;;;4.00;74.80;;;;;;4993587;28;20029;-70
2021/03/18 07:41:09;;;;;;;22.02;12.90;;;4.00;74.00;;;;;;4993584;28;20030;-70
2021/03/18 07:43:35;;;;;;;18.27;11.75;;;4.00;73.90;;;;;;4978222;28;20497;-70
2021/03/18 07:46:01;;;;;;;21.60;12.90;;;4.20;73.50;;;;;;4994060;28;20129;-69
2021/03/18 07:48:28;;;;;;;17.42;11.15;;;4.50;73.00;;;;;;4993460;28;20592;-70
2021/03/18 07:50:55;;;;;;;21.95;12.00;;;4.70;72.10;;;;;;4993850;28;20373;-70
2021/03/18 07:53:22;;;;;;;17.83;11.85;;;4.90;71.40;;;;;;4996137;28;20033;-69
2021/03/18 07:55:49;;;;;;;14.77;11.05;;;4.90;71.80;;;;;;4994194;28;20068;-71
2021/03/18 07:58:38;;;;;;;16.95;11.68;;;5.30;70.80;;;;;;4993260;28;20030;-69
2021/03/18 08:01:04;;;;;;;16.98;11.25;;;5.40;70.30;;;;;;4993441;28;20030;-69
2021/03/18 08:03:30;;;;;;;17.08;11.77;;;5.60;69.40;;;;;;5000107;28;20048;-68
2021/03/18 08:05:57;;;;;;;17.08;11.23;;;5.60;68.20;;;;;;4999470;28;20487;-69
2021/03/18 08:08:32;;;;;;;17.38;11.20;;;5.60;67.70;;;;;;5003201;28;20045;-70
2021/03/18 08:11:08;;;;;;;15.38;10.63;;;5.30;68.80;;;;;;5005231;28;20038;-70
2021/03/18 08:13:36;;;;;;;14.48;10.00;;;5.50;68.00;;;;;;4995554;28;20030;-70
2021/03/18 08:16:06;;;;;;;16.33;11.05;;;5.80;68.20;;;;;;5005885;28;20400;-69
2021/03/18 08:18:34;;;;;;;13.52;9.23;;;6.00;67.10;;;;;;4983924;28;20053;-71
2021/03/18 08:21:03;;;;;;;14.18;9.90;;;6.30;66.50;;;;;;4965597;28;20034;-76
2021/03/18 08:23:28;;;;;;;13.90;9.50;;;7.20;63.70;;;;;;5002242;28;20031;-72
2021/03/18 08:25:55;;;;;;;15.00;8.98;;;8.10;61.00;;;;;;5006999;28;20480;-73
2021/03/18 08:28:56;;;;;;;12.32;9.43;;;8.50;58.90;;;;;;5000316;28;20033;-72
2021/03/18 08:31:46;;;;;;;15.23;11.32;;;8.40;58.00;;;;;;4995552;28;20065;-75
2021/03/18 08:34:12;;;;;;;16.48;10.18;;;8.10;57.90;;;;;;4984056;28;20042;-70
2021/03/18 08:36:50;;;;;;;14.82;10.07;;;8.10;58.70;;;;;;4996865;28;20076;-70
2021/03/18 08:39:36;;;;;;;11.60;8.52;;;8.40;58.60;;;;;;4999392;28;20080;-66
2021/03/18 08:42:04;;;;;;;13.40;9.77;;;8.80;56.10;;;;;;4983860;28;20014;-70
2021/03/18 08:44:43;;;;;;;15.15;9.75;;;8.90;55.50;;;;;;4984351;28;20488;-71
2021/03/18 08:47:13;;;;;;;13.70;9.65;;;9.70;54.60;;;;;;5005235;28;20388;-70
2021/03/18 08:49:38;;;;;;;13.50;8.55;;;10.50;51.60;;;;;;4995335;28;20030;-74
2021/03/18 08:52:19;;;;;;;14.75;9.05;;;10.80;51.60;;;;;;5004106;28;20377;-70
2021/03/18 08:54:49;;;;;;;15.48;9.63;;;10.10;52.00;;;;;;5011470;28;20072;-71
2021/03/18 08:57:20;;;;;;;15.38;9.80;;;10.50;51.70;;;;;;4997677;28;20027;-70
2021/03/18 08:59:50;;;;;;;13.38;9.23;;;10.70;51.60;;;;;;5000554;28;20048;-70
2021/03/18 09:02:18;;;;;;;24.83;10.60;;;10.90;49.90;;;;;;4991351;28;20077;-69
2021/03/18 09:04:49;;;;;;;14.93;10.45;;;10.50;50.90;;;;;;5005962;28;20018;-70
2021/03/18 09:07:26;;;;;;;137.55;78.03;;;9.80;52.50;;;;;;5002130;28;20030;-72
2021/03/18 09:10:07;;;;;;;40.25;23.13;;;9.30;54.70;;;;;;4967061;28;20033;-71
2021/03/18 09:13:05;;;;;;;34.05;18.27;;;9.70;56.40;;;;;;5008036;28;20083;-71
2021/03/18 09:15:38;;;;;;;21.90;14.32;;;10.00;53.10;;;;;;4990213;28;20054;-72
2021/03/18 09:18:30;;;;;;;25.23;15.35;;;9.90;53.70;;;;;;5008715;28;20080;-74
2021/03/18 09:21:05;;;;;;;59.85;30.95;;;9.70;54.20;;;;;;5008150;28;20439;-71
2021/03/18 09:23:33;;;;;;;59.08;30.45;;;9.60;54.70;;;;;;4998579;28;20447;-70
2021/03/18 09:26:00;;;;;;;24.02;16.65;;;;;;;;;;5007998;28;20030;-72
2021/03/18 09:28:32;;;;;;;21.20;15.13;;;8.00;57.40;;;;;;5004110;28;20075;-70
2021/03/18 09:30:57;;;;;;;;;;;7.80;59.40;;;;;;5002158;28;20061;-71
2021/03/18 09:33:27;;;;;;;28.90;18.42;;;7.80;59.60;;;;;;5011229;28;19991;-69
2021/03/18 09:35:56;;;;;;;21.95;16.23;;;7.50;60.60;;;;;;4995739;28;20438;-71
2021/03/18 09:38:24;;;;;;;22.90;16.05;;;7.70;60.80;;;;;;5003093;28;20418;-72
2021/03/18 09:40:50;;;;;;;27.60;18.00;;;8.10;59.50;;;;;;5001421;28;20440;-70
2021/03/18 09:43:18;;;;;;;29.20;16.25;;;8.70;58.30;;;;;;4993338;28;20073;-72
2021/03/18 09:45:51;;;;;;;26.00;16.65;;;8.90;56.60;;;;;;4997266;28;20481;-70
2021/03/18 09:48:28;;;;;;;26.75;14.82;;;9.20;55.70;;;;;;5006749;28;20108;-70
2021/03/18 09:51:03;;;;;;;25.05;16.73;;;8.90;55.60;;;;;;5007389;28;20034;-69
2021/03/18 09:53:29;;;;;;;21.20;14.73;;;9.00;56.80;;;;;;4998191;28;20416;-70
2021/03/18 09:56:01;;;;;;;26.15;16.00;;;8.90;56.40;;;;;;5001955;28;20030;-70
2021/03/18 09:58:27;;;;;;;21.10;15.65;;;8.80;57.30;;;;;;5004761;28;20052;-69
2021/03/18 10:00:52;;;;;;;25.27;15.68;;;8.80;56.90;;;;;;4999159;28;20544;-73
2021/03/18 10:03:18;;;;;;;18.05;13.05;;;9.30;55.80;;;;;;5010316;28;20450;-70
2021/03/18 10:05:44;;;;;;;21.77;13.20;;;9.80;54.50;;;;;;5010892;28;20015;-69
2021/03/18 10:08:09;;;;;;;15.48;10.57;;;9.80;52.70;;;;;;5001400;28;20050;-70
2021/03/18 10:10:35;;;;;;;15.98;11.25;;;9.60;53.70;;;;;;5003262;28;20034;-68
2021/03/18 10:13:01;;;;;;;12.38;8.77;;;9.00;55.40;;;;;;5007895;28;20632;-68
2021/03/18 10:15:28;;;;;;;22.75;12.73;;;8.60;54.30;;;;;;4997252;28;20026;-68
2021/03/18 10:17:54;;;;;;;26.15;17.25;;;8.30;57.70;;;;;;5010972;28;20129;-68
2021/03/18 10:20:28;;;;;;;18.65;12.88;;;8.30;56.90;;;;;;5003299;28;20435;-71
2021/03/18 10:23:09;;;;;;;19.23;11.60;;;8.60;56.90;;;;;;5001417;28;20042;-71
2021/03/18 10:25:38;;;;;;;20.60;12.30;;;8.60;56.30;;;;;;5010620;28;20054;-71
2021/03/18 10:28:10;;;;;;;17.60;11.05;;;8.80;56.60;;;;;;5000027;28;20026;-71
2021/03/18 10:30:44;;;;;;;13.00;8.70;;;9.10;54.70;;;;;;5003521;28;20400;-72
2021/03/18 10:33:26;;;;;;;8.30;6.53;;;9.20;54.90;;;;;;5008908;28;20427;-72
2021/03/18 10:35:52;;;;;;;12.60;7.18;;;9.20;52.50;;;;;;4962717;28;20030;-71
2021/03/18 10:38:26;;;;;;;15.48;9.60;;;8.90;53.90;;;;;;5012391;28;20450;-70
2021/03/18 10:40:51;;;;;;;10.65;7.22;;;8.60;56.70;;;;;;5002787;28;20118;-70
2021/03/18 10:43:19;;;;;;;14.57;8.77;;;;;;;;;;5008880;28;20528;-73
2021/03/18 10:45:45;;;;;;;13.20;8.63;;;;;;;;;;4997353;28;20022;-71
2021/03/18 10:48:10;;;;;;;7.95;6.32;;;7.90;59.00;;;;;;5005065;28;20489;-69
2021/03/18 10:50:37;;;;;;;15.40;9.82;;;8.40;55.80;;;;;;5002857;28;20028;-68
2021/03/18 10:53:06;;;;;;;14.73;9.45;;;8.70;55.60;;;;;;4999461;28;20106;-69
2021/03/18 10:55:35;;;;;;;12.75;8.60;;;9.00;55.10;;;;;;5008407;28;20109;-69
2021/03/18 10:58:06;;;;;;;9.07;6.45;;;9.20;53.50;;;;;;4999009;28;20026;-68
2021/03/18 11:00:37;;;;;;;8.38;6.30;;;8.80;53.50;;;;;;5003397;28;20031;-68
2021/03/18 11:03:09;;;;;;;15.60;8.52;;;8.10;55.60;;;;;;4990098;28;20034;-68
2021/03/18 11:05:49;;;;;;;8.95;6.70;;;7.50;57.70;;;;;;5011172;28;20018;-69
2021/03/18 11:08:17;;;;;;;17.88;11.30;;;7.00;58.90;;;;;;4999422;28;20113;-67
2021/03/18 11:10:48;;;;;;;21.38;12.23;;;6.90;62.00;;;;;;4999611;28;20030;-66
2021/03/18 11:13:29;;;;;;;8.57;5.60;;;7.00;64.70;;;;;;5008705;28;20053;-68
2021/03/18 11:16:00;;;;;;;8.93;6.57;;;6.60;63.80;;;;;;4983314;28;20602;-70
2021/03/18 11:18:37;;;;;;;11.15;7.53;;;6.10;66.10;;;;;;5003473;28;20033;-67
2021/03/18 11:21:16;;;;;;;9.60;7.13;;;6.00;67.80;;;;;;4993244;28;20488;-68
2021/03/18 11:23:41;;;;;;;9.60;7.28;;;5.70;68.20;;;;;;5004704;28;20190;-68
2021/03/18 11:26:07;;;;;;;11.73;7.80;;;5.80;68.80;;;;;;5006141;28;20058;-68
2021/03/18 11:28:34;;;;;;;13.20;8.85;;;5.40;69.70;;;;;;4985428;28;20480;-68
2021/03/18 11:31:12;;;;;;;12.27;8.25;;;5.20;71.50;;;;;;4999273;28;20641;-68
2021/03/18 11:33:37;;;;;;;12.95;7.93;;;5.10;70.70;;;;;;5009461;28;20101;-68
2021/03/18 11:36:05;;;;;;;12.68;9.23;;;5.10;72.80;;;;;;4993648;28;20023;-67
2021/03/18 11:38:32;;;;;;;16.05;10.40;;;4.60;75.10;;;;;;4994860;28;20132;-67
2021/03/18 11:40:57;;;;;;;14.20;10.10;;;4.10;77.40;;;;;;4998032;28;20089;-68
2021/03/18 11:43:24;;;;;;;20.25;12.15;;;4.00;79.90;;;;;;5008972;28;20030;-67
2021/03/18 11:45:49;;;;;;;22.00;14.75;;;4.10;82.20;;;;;;4995412;28;20030;-68
2021/03/18 11:48:15;;;;;;;21.83;13.38;;;4.20;82.70;;;;;;5004802;28;20105;-68
2021/03/18 11:50:41;;;;;;;27.35;15.15;;;4.30;83.80;;;;;;5002011;28;20037;-68
2021/03/18 11:53:07;;;;;;;20.40;13.25;;;4.50;83.30;;;;;;4997955;28;20023;-68
2021/03/18 11:55:33;;;;;;;21.65;13.02;;;4.70;85.40;;;;;;5008610;28;20088;-69
2021/03/18 11:57:58;;;;;;;15.98;9.73;;;4.80;83.80;;;;;;4997486;28;20029;-70
2021/03/18 12:00:26;;;;;;;20.92;12.02;;;4.70;82.60;;;;;;5003430;28;20448;-69
2021/03/18 12:02:54;;;;;;;23.35;13.40;;;4.80;83.80;;;;;;4987731;28;20125;-69
2021/03/18 12:05:20;;;;;;;31.05;13.60;;;5.10;84.90;;;;;;4994850;28;20401;-71
2021/03/18 12:07:46;;;;;;;11.38;6.38;;;5.30;82.40;;;;;;4995554;28;20092;-71
2021/03/18 12:10:12;;;;;;;11.77;4.97;;;5.40;82.80;;;;;;5005037;28;20069;-69
2021/03/18 12:12:38;;;;;;;44.90;17.30;;;5.70;81.90;;;;;;5002942;28;20495;-70
2021/03/18 12:15:06;;;;;;;8.68;4.13;;;6.00;80.00;;;;;;4997799;28;20057;-72
2021/03/18 12:17:32;;;;;;;33.38;10.65;;;6.20;77.40;;;;;;5008304;28;20160;-70
2021/03/18 12:19:58;;;;;;;9.05;4.28;;;6.40;77.60;;;;;;4997156;28;20029;-72
2021/03/18 12:22:23;;;;;;;27.45;13.05;;;6.40;73.30;;;;;;5003461;28;20408;-67
2021/03/18 12:24:49;;;;;;;7.43;4.25;;;6.50;74.60;;;;;;4986710;28;20033;-67
2021/03/18 12:27:14;;;;;;;6.47;4.13;;;6.70;74.20;;;;;;4996042;28;20097;-69
2021/03/18 12:29:40;;;;;;;6.40;4.47;;;6.60;70.80;;;;;;5007748;28;20042;-68
2021/03/18 12:32:06;;;;;;;6.85;4.07;;;6.60;69.40;;;;;;5005430;28;20018;-69
2021/03/18 12:34:31;;;;;;;14.18;7.25;;;6.80;70.00;;;;;;5001963;28;20033;-68
2021/03/18 12:36:57;;;;;;;10.18;5.93;;;7.00;69.50;;;;;;4992467;28;20442;-71
2021/03/18 12:39:23;;;;;;;17.10;7.90;;;7.20;67.50;;;;;;5009871;28;20026;-70
2021/03/18 12:41:49;;;;;;;7.20;5.07;;;7.30;66.70;;;;;;4978507;28;20022;-69
2021/03/18 12:44:14;;;;;;;11.32;6.10;;;7.40;64.10;;;;;;5004218;28;20032;-69
2021/03/18 12:46:41;;;;;;;8.73;4.60;;;7.40;66.70;;;;;;5002820;28;20025;-70
2021/03/18 12:49:07;;;;;;;7.75;4.85;;;7.50;67.00;;;;;;4979729;28;20031;-70
2021/03/18 12:51:34;;;;;;;12.80;7.57;;;7.60;66.80;;;;;;5006632;28;20026;-69
2021/03/18 12:54:00;;;;;;;6.05;4.72;;;7.80;66.00;;;;;;4997310;28;20022;-70
2021/03/18 12:56:25;;;;;;;7.38;5.28;;;7.60;64.20;;;;;;4984555;28;20034;-69